Aérodrome :







RETROUVEZ-NOUS SUR...

 
LOGIN :

S'inscrire | Disclaimer

   EN    FR    IT 

 









Légende :    VFR   VFR Marginal   IFR   IFR Intensif   IFR Très Intensif
Visi : 
Plafond : 
>= 8 km
>= 3000ft
5 à 8 km
1000 à 3000 ft
1500m à 5 km
500 à 1000 ft
800 à 1500m
200 à 500 ft
< 800m
< 200 ft
Symboles :   Orages  Brouillard  Fortes neiges  Fortes précipitations  Vent > 20 kt






- Altitude de l'aérodrome : 9 ft
- Code IATA : SJU


TJSJ - Luis Munoz Marin Int.

DERNIER METAR :
  • 070056Z 12004KT 10SM FEW028 28/23 A3004 RMK AO2 SLP170 T02780228

METARs EXPIRÉS :
  • 062356Z 11004KT 10SM FEW025 28/23 A3002 RMK AO2 SLP166 T02780228 10311 20278 51015
  • 062256Z 10006KT 10SM FEW030 28/23 A3002 RMK AO2 SLP163 T02830228

TAF TJSJ
Valide du 07 à 00h jusqu'au 08 à 00h UTC


062340Z 0700/0724 10008KT P6SM FEW030
FM071400 06015KT P6SM FEW035 SCT050
FM072200 09012KT P6SM FEW035 SCT050



MET'MAP, la Météo Aéronautique d'un coup d'oeil ! - Copyright ORBIFLY Décembre 2007 - Disclaimer

ORBIFLY MET'MAP TEAM :

Programmation & Développement : Alexandra Zaïnal
Sur une idée originale de : Baudouin d'Aumeries
Assistance à la programmation : Marc-Olivier Méhu
Soutien technique & logistique : Manuel Goepfert

Contact : metmap@orbifly.com




SOURCES & CREDITS :

   NOAA